sensor_id;sensor_type;location;lat;lon;timestamp;pressure;altitude;pressure_sealevel;temperature;humidity
39455;BME280;25155;41.890;23.446;2023-04-15T00:02:21;91237.28;;;3.65;70.78
39455;BME280;25155;41.890;23.446;2023-04-15T00:04:48;91240.16;;;3.69;70.63
39455;BME280;25155;41.890;23.446;2023-04-15T00:07:15;91238.34;;;3.69;70.78
39455;BME280;25155;41.890;23.446;2023-04-15T00:09:42;91238.09;;;3.71;70.47
39455;BME280;25155;41.890;23.446;2023-04-15T00:12:10;91238.59;;;3.68;70.81
39455;BME280;25155;41.890;23.446;2023-04-15T00:14:39;91229.25;;;3.67;71.02
39455;BME280;25155;41.890;23.446;2023-04-15T00:17:06;91234.69;;;3.70;71.23
39455;BME280;25155;41.890;23.446;2023-04-15T00:19:33;91242.47;;;3.65;71.13
39455;BME280;25155;41.890;23.446;2023-04-15T00:22:00;91251.78;;;3.56;70.89
39455;BME280;25155;41.890;23.446;2023-04-15T00:24:27;91248.94;;;3.52;70.86
39455;BME280;25155;41.890;23.446;2023-04-15T00:26:56;91242.19;;;3.51;70.83
39455;BME280;25155;41.890;23.446;2023-04-15T00:29:23;91246.59;;;3.51;70.97
39455;BME280;25155;41.890;23.446;2023-04-15T00:31:51;91235.94;;;3.47;71.04
39455;BME280;25155;41.890;23.446;2023-04-15T00:34:19;91237.78;;;3.57;71.17
39455;BME280;25155;41.890;23.446;2023-04-15T00:36:46;91230.81;;;3.57;71.13
39455;BME280;25155;41.890;23.446;2023-04-15T00:39:13;91238.84;;;3.61;71.00
39455;BME280;25155;41.890;23.446;2023-04-15T00:41:41;91237.28;;;3.65;71.03
39455;BME280;25155;41.890;23.446;2023-04-15T00:44:08;91240.94;;;3.69;70.92
39455;BME280;25155;41.890;23.446;2023-04-15T00:46:36;91237.84;;;3.72;70.79
39455;BME280;25155;41.890;23.446;2023-04-15T00:49:06;91240.94;;;3.74;70.67
39455;BME280;25155;41.890;23.446;2023-04-15T00:51:33;91235.75;;;3.74;70.89
39455;BME280;25155;41.890;23.446;2023-04-15T00:54:02;91237.81;;;3.67;70.32
39455;BME280;25155;41.890;23.446;2023-04-15T00:56:30;91230.00;;;3.62;70.82
39455;BME280;25155;41.890;23.446;2023-04-15T00:58:57;91246.13;;;3.69;70.84
39455;BME280;25155;41.890;23.446;2023-04-15T01:01:25;91241.44;;;3.71;70.86
39455;BME280;25155;41.890;23.446;2023-04-15T01:03:55;91250.25;;;3.70;70.78
39455;BME280;25155;41.890;23.446;2023-04-15T01:06:24;91253.63;;;3.71;71.08
39455;BME280;25155;41.890;23.446;2023-04-15T01:08:53;91253.13;;;3.74;70.91
39455;BME280;25155;41.890;23.446;2023-04-15T01:11:20;91247.69;;;3.75;70.84
39455;BME280;25155;41.890;23.446;2023-04-15T01:13:49;91249.50;;;3.80;70.77
39455;BME280;25155;41.890;23.446;2023-04-15T01:16:17;91246.66;;;3.81;70.47
39455;BME280;25155;41.890;23.446;2023-04-15T01:18:44;91253.66;;;3.76;71.11
39455;BME280;25155;41.890;23.446;2023-04-15T01:21:11;91253.34;;;3.62;72.24
39455;BME280;25155;41.890;23.446;2023-04-15T01:23:42;91255.84;;;3.36;73.80
39455;BME280;25155;41.890;23.446;2023-04-15T01:26:12;91252.16;;;3.22;74.87
39455;BME280;25155;41.890;23.446;2023-04-15T01:28:39;91251.91;;;3.23;74.62
39455;BME280;25155;41.890;23.446;2023-04-15T01:31:07;91251.13;;;3.23;75.24
39455;BME280;25155;41.890;23.446;2023-04-15T01:33:35;91238.94;;;3.18;74.58
39455;BME280;25155;41.890;23.446;2023-04-15T01:36:03;91246.50;;;3.30;74.28
39455;BME280;25155;41.890;23.446;2023-04-15T01:38:31;91244.97;;;3.34;74.20
39455;BME280;25155;41.890;23.446;2023-04-15T01:40:58;91248.59;;;3.38;73.51
39455;BME280;25155;41.890;23.446;2023-04-15T01:43:26;91247.06;;;3.37;73.14
39455;BME280;25155;41.890;23.446;2023-04-15T01:45:54;91253.78;;;3.38;72.47
39455;BME280;25155;41.890;23.446;2023-04-15T01:48:22;91252.00;;;3.39;72.48
39455;BME280;25155;41.890;23.446;2023-04-15T01:50:49;91252.50;;;3.41;71.87
39455;BME280;25155;41.890;23.446;2023-04-15T01:53:16;91255.63;;;3.43;71.63
39455;BME280;25155;41.890;23.446;2023-04-15T01:55:43;91265.97;;;3.43;71.35
39455;BME280;25155;41.890;23.446;2023-04-15T01:58:10;91246.81;;;3.39;70.90
39455;BME280;25155;41.890;23.446;2023-04-15T02:00:39;91251.72;;;3.40;70.31
39455;BME280;25155;41.890;23.446;2023-04-15T02:03:06;91259.72;;;3.34;70.59
39455;BME280;25155;41.890;23.446;2023-04-15T02:05:33;91259.44;;;3.25;70.77
39455;BME280;25155;41.890;23.446;2023-04-15T02:08:01;91259.38;;;3.09;71.30
39455;BME280;25155;41.890;23.446;2023-04-15T02:10:28;91256.75;;;3.04;71.76
39455;BME280;25155;41.890;23.446;2023-04-15T02:12:55;91257.78;;;3.03;71.88
39455;BME280;25155;41.890;23.446;2023-04-15T02:15:22;91261.94;;;3.04;71.93
39455;BME280;25155;41.890;23.446;2023-04-15T02:17:51;91248.97;;;3.04;71.94
39455;BME280;25155;41.890;23.446;2023-04-15T02:20:20;91251.06;;;3.07;71.87
39455;BME280;25155;41.890;23.446;2023-04-15T02:22:47;91247.44;;;3.08;71.98
39455;BME280;25155;41.890;23.446;2023-04-15T02:25:14;91244.59;;;3.10;72.15
39455;BME280;25155;41.890;23.446;2023-04-15T02:27:42;91244.34;;;3.12;72.16
39455;BME280;25155;41.890;23.446;2023-04-15T02:30:10;91251.09;;;3.13;72.02
39455;BME280;25155;41.890;23.446;2023-04-15T02:32:37;91244.88;;;3.14;72.04
39455;BME280;25155;41.890;23.446;2023-04-15T02:35:07;91242.78;;;3.10;72.28
39455;BME280;25155;41.890;23.446;2023-04-15T02:37:36;91247.97;;;3.10;72.77
39455;BME280;25155;41.890;23.446;2023-04-15T02:40:08;91248.22;;;3.09;72.51
39455;BME280;25155;41.890;23.446;2023-04-15T02:42:37;91259.88;;;3.06;72.53
39455;BME280;25155;41.890;23.446;2023-04-15T02:45:05;91257.13;;;2.86;73.36
39455;BME280;25155;41.890;23.446;2023-04-15T02:47:32;91255.94;;;2.61;73.69
39455;BME280;25155;41.890;23.446;2023-04-15T02:50:01;91261.25;;;2.44;74.29
39455;BME280;25155;41.890;23.446;2023-04-15T02:52:30;91266.06;;;2.30;74.28
39455;BME280;25155;41.890;23.446;2023-04-15T02:54:57;91256.22;;;2.27;74.01
39455;BME280;25155;41.890;23.446;2023-04-15T02:57:25;91258.53;;;2.29;73.97
39455;BME280;25155;41.890;23.446;2023-04-15T02:59:54;91256.41;;;2.21;73.96
39455;BME280;25155;41.890;23.446;2023-04-15T03:02:21;91271.28;;;2.03;74.70
39455;BME280;25155;41.890;23.446;2023-04-15T03:04:48;91270.38;;;1.92;75.46
39455;BME280;25155;41.890;23.446;2023-04-15T03:07:16;91267.19;;;1.80;76.44
39455;BME280;25155;41.890;23.446;2023-04-15T03:09:45;91277.13;;;1.71;77.76
39455;BME280;25155;41.890;23.446;2023-04-15T03:12:12;91273.72;;;1.66;78.44
39455;BME280;25155;41.890;23.446;2023-04-15T03:14:39;91273.63;;;1.55;79.60
39455;BME280;25155;41.890;23.446;2023-04-15T03:17:06;91283.97;;;1.55;80.38
39455;BME280;25155;41.890;23.446;2023-04-15T03:19:34;91278.84;;;1.60;80.28
39455;BME280;25155;41.890;23.446;2023-04-15T03:22:01;91292.84;;;1.65;80.54
39455;BME280;25155;41.890;23.446;2023-04-15T03:24:28;91288.19;;;1.67;80.49
39455;BME280;25155;41.890;23.446;2023-04-15T03:26:56;91293.72;;;1.75;80.13
39455;BME280;25155;41.890;23.446;2023-04-15T03:29:24;91286.31;;;1.84;79.46
39455;BME280;25155;41.890;23.446;2023-04-15T03:31:51;91289.03;;;1.99;79.24
39455;BME280;25155;41.890;23.446;2023-04-15T03:34:18;91284.00;;;2.10;79.23
39455;BME280;25155;41.890;23.446;2023-04-15T03:36:45;91284.84;;;2.21;78.41
39455;BME280;25155;41.890;23.446;2023-04-15T03:39:13;91284.13;;;2.25;78.21
39455;BME280;25155;41.890;23.446;2023-04-15T03:41:40;91293.50;;;2.31;77.47
39455;BME280;25155;41.890;23.446;2023-04-15T03:44:08;91296.31;;;2.30;77.12
39455;BME280;25155;41.890;23.446;2023-04-15T03:46:36;91290.34;;;2.29;76.92
39455;BME280;25155;41.890;23.446;2023-04-15T03:49:03;91282.34;;;2.31;76.60
39455;BME280;25155;41.890;23.446;2023-04-15T03:51:30;91295.50;;;2.29;76.04
39455;BME280;25155;41.890;23.446;2023-04-15T03:53:58;91302.25;;;2.30;76.10
39455;BME280;25155;41.890;23.446;2023-04-15T03:56:25;91298.66;;;2.31;76.41
39455;BME280;25155;41.890;23.446;2023-04-15T03:58:52;91305.38;;;2.32;76.52
39455;BME280;25155;41.890;23.446;2023-04-15T04:01:20;91302.59;;;2.39;76.42
39455;BME280;25155;41.890;23.446;2023-04-15T04:03:47;91301.59;;;2.45;76.20
39455;BME280;25155;41.890;23.446;2023-04-15T04:06:14;91304.00;;;2.52;76.02
39455;BME280;25155;41.890;23.446;2023-04-15T04:08:41;91304.03;;;2.57;75.98
39455;BME280;25155;41.890;23.446;2023-04-15T04:11:09;91309.22;;;2.62;76.32
39455;BME280;25155;41.890;23.446;2023-04-15T04:13:36;91316.00;;;2.68;75.94
39455;BME280;25155;41.890;23.446;2023-04-15T04:16:03;91330.00;;;2.72;75.62
39455;BME280;25155;41.890;23.446;2023-04-15T04:18:32;91329.50;;;2.76;75.41
39455;BME280;25155;41.890;23.446;2023-04-15T04:21:00;91334.72;;;2.81;74.90
39455;BME280;25155;41.890;23.446;2023-04-15T04:23:27;91331.63;;;2.84;75.02
39455;BME280;25155;41.890;23.446;2023-04-15T04:25:54;91336.31;;;2.87;75.02
39455;BME280;25155;41.890;23.446;2023-04-15T04:28:21;91339.69;;;2.87;74.88
39455;BME280;25155;41.890;23.446;2023-04-15T04:30:49;91341.53;;;2.92;75.00
39455;BME280;25155;41.890;23.446;2023-04-15T04:33:16;91343.63;;;2.95;74.89
39455;BME280;25155;41.890;23.446;2023-04-15T04:35:45;91340.81;;;2.97;74.77
39455;BME280;25155;41.890;23.446;2023-04-15T04:38:12;91341.09;;;3.00;74.71
39455;BME280;25155;41.890;23.446;2023-04-15T04:40:39;91339.84;;;3.03;74.45
39455;BME280;25155;41.890;23.446;2023-04-15T04:43:06;91335.44;;;3.03;74.18
39455;BME280;25155;41.890;23.446;2023-04-15T04:45:33;91340.88;;;3.07;74.51
39455;BME280;25155;41.890;23.446;2023-04-15T04:48:01;91338.28;;;3.07;74.43
39455;BME280;25155;41.890;23.446;2023-04-15T04:50:31;91341.69;;;3.07;74.15
39455;BME280;25155;41.890;23.446;2023-04-15T04:53:00;91335.41;;;2.98;74.82
39455;BME280;25155;41.890;23.446;2023-04-15T04:55:27;91353.56;;;3.03;75.04
39455;BME280;25155;41.890;23.446;2023-04-15T04:57:54;91352.53;;;3.04;75.66
39455;BME280;25155;41.890;23.446;2023-04-15T05:00:21;91359.22;;;3.00;75.54
39455;BME280;25155;41.890;23.446;2023-04-15T05:02:49;91358.38;;;2.95;76.29
39455;BME280;25155;41.890;23.446;2023-04-15T05:05:16;91358.38;;;2.95;76.47
39455;BME280;25155;41.890;23.446;2023-04-15T05:07:43;91363.09;;;2.98;76.60
39455;BME280;25155;41.890;23.446;2023-04-15T05:10:12;91363.38;;;3.01;76.02
39455;BME280;25155;41.890;23.446;2023-04-15T05:12:39;91369.63;;;3.05;75.95
39455;BME280;25155;41.890;23.446;2023-04-15T05:15:08;91376.56;;;3.00;76.26
39455;BME280;25155;41.890;23.446;2023-04-15T05:17:35;91371.91;;;3.02;76.71
39455;BME280;25155;41.890;23.446;2023-04-15T05:20:02;91373.53;;;3.08;77.68
39455;BME280;25155;41.890;23.446;2023-04-15T05:22:30;91371.75;;;3.14;77.95
39455;BME280;25155;41.890;23.446;2023-04-15T05:24:57;91369.25;;;3.24;77.81
39455;BME280;25155;41.890;23.446;2023-04-15T05:27:25;91375.25;;;3.35;77.56
39455;BME280;25155;41.890;23.446;2023-04-15T05:29:52;91371.69;;;3.46;77.78
39455;BME280;25155;41.890;23.446;2023-04-15T05:32:21;91373.81;;;3.54;77.05
39455;BME280;25155;41.890;23.446;2023-04-15T05:34:48;91379.78;;;3.60;76.78
39455;BME280;25155;41.890;23.446;2023-04-15T05:37:15;91384.44;;;3.58;76.46
39455;BME280;25155;41.890;23.446;2023-04-15T05:39:42;91390.09;;;3.50;76.05
39455;BME280;25155;41.890;23.446;2023-04-15T05:42:10;91385.91;;;3.43;76.61
39455;BME280;25155;41.890;23.446;2023-04-15T05:44:38;91391.09;;;3.43;76.95
39455;BME280;25155;41.890;23.446;2023-04-15T05:47:05;91390.81;;;3.40;77.14
39455;BME280;25155;41.890;23.446;2023-04-15T05:49:33;91395.16;;;3.29;78.59
39455;BME280;25155;41.890;23.446;2023-04-15T05:52:00;91385.75;;;3.18;78.79
39455;BME280;25155;41.890;23.446;2023-04-15T05:54:27;91396.63;;;3.15;78.94
39455;BME280;25155;41.890;23.446;2023-04-15T05:56:54;91398.53;;;2.97;79.53
39455;BME280;25155;41.890;23.446;2023-04-15T05:59:22;91402.59;;;2.88;80.31
39455;BME280;25155;41.890;23.446;2023-04-15T06:01:50;91392.97;;;2.83;81.01
39455;BME280;25155;41.890;23.446;2023-04-15T06:04:19;91400.00;;;2.88;80.87
39455;BME280;25155;41.890;23.446;2023-04-15T06:06:46;91408.50;;;2.83;81.51
39455;BME280;25155;41.890;23.446;2023-04-15T06:09:13;91408.31;;;2.90;81.25
39455;BME280;25155;41.890;23.446;2023-04-15T06:11:40;91410.66;;;2.91;81.00
39455;BME280;25155;41.890;23.446;2023-04-15T06:14:07;91415.59;;;2.93;81.30
39455;BME280;25155;41.890;23.446;2023-04-15T06:16:34;91419.81;;;2.99;81.39
39455;BME280;25155;41.890;23.446;2023-04-15T06:19:03;91425.78;;;3.05;80.86
39455;BME280;25155;41.890;23.446;2023-04-15T06:21:30;91425.09;;;3.15;80.89
39455;BME280;25155;41.890;23.446;2023-04-15T06:23:58;91418.38;;;3.19;79.86
39455;BME280;25155;41.890;23.446;2023-04-15T06:26:25;91414.59;;;3.32;79.87
39455;BME280;25155;41.890;23.446;2023-04-15T06:28:53;91421.41;;;3.43;79.75
39455;BME280;25155;41.890;23.446;2023-04-15T06:31:20;91431.59;;;3.55;80.52
39455;BME280;25155;41.890;23.446;2023-04-15T06:33:47;91429.03;;;3.65;79.97
39455;BME280;25155;41.890;23.446;2023-04-15T06:36:16;91429.66;;;3.77;79.96
39455;BME280;25155;41.890;23.446;2023-04-15T06:38:43;91420.91;;;3.94;79.32
39455;BME280;25155;41.890;23.446;2023-04-15T06:41:10;91420.94;;;4.04;78.41
39455;BME280;25155;41.890;23.446;2023-04-15T06:43:37;91424.34;;;4.15;79.17
39455;BME280;25155;41.890;23.446;2023-04-15T06:46:04;91431.63;;;4.18;78.53
39455;BME280;25155;41.890;23.446;2023-04-15T06:48:31;91430.84;;;4.17;78.17
39455;BME280;25155;41.890;23.446;2023-04-15T06:50:58;91431.94;;;4.22;77.55
39455;BME280;25155;41.890;23.446;2023-04-15T06:53:27;91432.44;;;4.24;78.00
39455;BME280;25155;41.890;23.446;2023-04-15T06:55:54;91438.19;;;4.36;78.70
39455;BME280;25155;41.890;23.446;2023-04-15T06:58:21;91435.13;;;4.54;78.58
39455;BME280;25155;41.890;23.446;2023-04-15T07:00:48;91435.69;;;4.72;78.56
39455;BME280;25155;41.890;23.446;2023-04-15T07:03:15;91433.09;;;4.77;78.00
39455;BME280;25155;41.890;23.446;2023-04-15T07:05:43;91421.19;;;4.86;77.77
39455;BME280;25155;41.890;23.446;2023-04-15T07:08:10;91424.28;;;4.99;77.69
39455;BME280;25155;41.890;23.446;2023-04-15T07:10:40;91422.50;;;5.04;75.79
39455;BME280;25155;41.890;23.446;2023-04-15T07:13:07;91413.66;;;5.10;75.24
39455;BME280;25155;41.890;23.446;2023-04-15T07:15:34;91411.84;;;5.21;75.57
39455;BME280;25155;41.890;23.446;2023-04-15T07:18:01;91415.75;;;5.34;76.46
39455;BME280;25155;41.890;23.446;2023-04-15T07:20:28;91421.19;;;5.48;76.09
39455;BME280;25155;41.890;23.446;2023-04-15T07:22:55;91423.75;;;5.68;76.21
39455;BME280;25155;41.890;23.446;2023-04-15T07:25:22;91417.47;;;5.85;76.29
39455;BME280;25155;41.890;23.446;2023-04-15T07:27:51;91415.59;;;6.06;76.79
39455;BME280;25155;41.890;23.446;2023-04-15T07:30:19;91428.28;;;6.28;76.21
39455;BME280;25155;41.890;23.446;2023-04-15T07:32:46;91416.22;;;6.48;75.73
39455;BME280;25155;41.890;23.446;2023-04-15T07:35:13;91421.34;;;6.63;74.63
39455;BME280;25155;41.890;23.446;2023-04-15T07:37:40;91422.34;;;6.72;73.90
39455;BME280;25155;41.890;23.446;2023-04-15T07:40:09;91427.47;;;6.83;72.78
39455;BME280;25155;41.890;23.446;2023-04-15T07:42:36;91429.00;;;6.89;71.22
39455;BME280;25155;41.890;23.446;2023-04-15T07:45:06;91432.63;;;6.93;71.50
39455;BME280;25155;41.890;23.446;2023-04-15T07:47:34;91429.47;;;6.96;70.41
39455;BME280;25155;41.890;23.446;2023-04-15T07:50:01;91439.31;;;7.04;69.18
39455;BME280;25155;41.890;23.446;2023-04-15T07:52:29;91431.25;;;7.06;67.32
39455;BME280;25155;41.890;23.446;2023-04-15T07:54:57;91433.03;;;7.10;67.08
39455;BME280;25155;41.890;23.446;2023-04-15T07:57:24;91431.91;;;7.22;68.46
39455;BME280;25155;41.890;23.446;2023-04-15T07:59:51;91433.88;;;7.40;68.16
39455;BME280;25155;41.890;23.446;2023-04-15T08:02:19;91430.91;;;7.52;67.74
39455;BME280;25155;41.890;23.446;2023-04-15T08:04:46;91440.22;;;7.63;68.06
39455;BME280;25155;41.890;23.446;2023-04-15T08:07:13;91434.13;;;7.73;67.22
39455;BME280;25155;41.890;23.446;2023-04-15T08:09:40;91436.84;;;7.87;66.64
39455;BME280;25155;41.890;23.446;2023-04-15T08:12:07;91436.16;;;8.05;66.47
39455;BME280;25155;41.890;23.446;2023-04-15T08:14:37;91436.72;;;8.26;65.69
39455;BME280;25155;41.890;23.446;2023-04-15T08:17:05;91428.13;;;8.45;65.66
39455;BME280;25155;41.890;23.446;2023-04-15T08:19:33;91432.75;;;8.53;64.59
39455;BME280;25155;41.890;23.446;2023-04-15T08:22:00;91441.44;;;8.68;65.73
39455;BME280;25155;41.890;23.446;2023-04-15T08:24:29;91428.41;;;8.87;65.66
39455;BME280;25155;41.890;23.446;2023-04-15T08:26:57;91430.84;;;9.02;64.44
39455;BME280;25155;41.890;23.446;2023-04-15T08:29:24;91428.84;;;9.13;63.25
39455;BME280;25155;41.890;23.446;2023-04-15T08:31:52;91428.63;;;9.28;63.93
39455;BME280;25155;41.890;23.446;2023-04-15T08:34:20;91433.91;;;9.42;63.53
39455;BME280;25155;41.890;23.446;2023-04-15T08:36:48;91431.41;;;9.51;62.29
39455;BME280;25155;41.890;23.446;2023-04-15T08:39:16;91440.44;;;9.59;60.14
39455;BME280;25155;41.890;23.446;2023-04-15T08:41:45;91442.09;;;9.54;59.24
39455;BME280;25155;41.890;23.446;2023-04-15T08:44:13;91434.09;;;9.46;56.87
39455;BME280;25155;41.890;23.446;2023-04-15T08:46:41;91443.44;;;9.52;55.53
39455;BME280;25155;41.890;23.446;2023-04-15T08:49:10;91438.56;;;9.45;53.33
39455;BME280;25155;41.890;23.446;2023-04-15T08:51:39;91434.09;;;9.46;53.45
39455;BME280;25155;41.890;23.446;2023-04-15T08:54:08;91419.22;;;9.46;54.81
39455;BME280;25155;41.890;23.446;2023-04-15T08:56:37;91418.56;;;9.68;56.62
39455;BME280;25155;41.890;23.446;2023-04-15T08:59:05;91406.88;;;9.93;56.85
39455;BME280;25155;41.890;23.446;2023-04-15T09:01:33;91414.25;;;10.05;54.26
39455;BME280;25155;41.890;23.446;2023-04-15T09:04:02;91406.63;;;10.23;56.47
39455;BME280;25155;41.890;23.446;2023-04-15T09:06:31;91401.41;;;10.51;56.84
39455;BME280;25155;41.890;23.446;2023-04-15T09:08:58;91403.47;;;10.76;55.58
39455;BME280;25155;41.890;23.446;2023-04-15T09:11:29;91405.28;;;10.90;48.77
39455;BME280;25155;41.890;23.446;2023-04-15T09:13:56;91401.78;;;10.94;48.17
39455;BME280;25155;41.890;23.446;2023-04-15T09:16:23;91398.41;;;10.94;46.69
39455;BME280;25155;41.890;23.446;2023-04-15T09:18:50;91393.03;;;10.99;46.87
39455;BME280;25155;41.890;23.446;2023-04-15T09:21:17;91397.34;;;11.17;48.32
39455;BME280;25155;41.890;23.446;2023-04-15T09:23:55;91393.16;;;11.16;44.84
39455;BME280;25155;41.890;23.446;2023-04-15T09:26:34;91387.75;;;11.13;42.63
39455;BME280;25155;41.890;23.446;2023-04-15T09:29:04;91383.06;;;11.24;42.46
39455;BME280;25155;41.890;23.446;2023-04-15T09:31:39;91381.16;;;11.15;42.06
39455;BME280;25155;41.890;23.446;2023-04-15T09:34:06;91375.91;;;11.15;40.00
39455;BME280;25155;41.890;23.446;2023-04-15T09:36:51;91370.66;;;11.15;39.51
39455;BME280;25155;41.890;23.446;2023-04-15T09:39:18;91369.44;;;11.21;39.26
39455;BME280;25155;41.890;23.446;2023-04-15T09:42:03;91377.22;;;11.27;38.18
39455;BME280;25155;41.890;23.446;2023-04-15T09:44:31;91374.88;;;11.25;37.49
39455;BME280;25155;41.890;23.446;2023-04-15T09:46:58;91367.50;;;11.27;39.54
39455;BME280;25155;41.890;23.446;2023-04-15T09:49:25;91366.72;;;11.27;38.10
39455;BME280;25155;41.890;23.446;2023-04-15T09:51:57;91357.47;;;11.29;36.95
39455;BME280;25155;41.890;23.446;2023-04-15T09:54:24;91352.63;;;11.45;38.26
39455;BME280;25155;41.890;23.446;2023-04-15T09:56:52;91345.47;;;11.60;39.74
39455;BME280;25155;41.890;23.446;2023-04-15T09:59:20;91349.75;;;11.78;39.86
39455;BME280;25155;41.890;23.446;2023-04-15T10:01:48;91348.09;;;11.91;40.59
39455;BME280;25155;41.890;23.446;2023-04-15T10:04:15;91349.06;;;12.04;40.58
39455;BME280;25155;41.890;23.446;2023-04-15T10:06:43;91359.94;;;12.11;38.99
39455;BME280;25155;41.890;23.446;2023-04-15T10:09:11;91353.72;;;12.07;37.51
39455;BME280;25155;41.890;23.446;2023-04-15T10:11:39;91354.47;;;12.07;37.44
39455;BME280;25155;41.890;23.446;2023-04-15T10:14:09;91356.34;;;12.07;36.50
39455;BME280;25155;41.890;23.446;2023-04-15T10:16:37;91354.16;;;12.00;35.74
39455;BME280;25155;41.890;23.446;2023-04-15T10:19:07;91362.94;;;11.95;36.33
39455;BME280;25155;41.890;23.446;2023-04-15T10:21:36;91357.22;;;11.93;36.15
39455;BME280;25155;41.890;23.446;2023-04-15T10:24:04;91352.28;;;12.01;37.21
39455;BME280;25155;41.890;23.446;2023-04-15T10:26:33;91349.88;;;12.13;37.34
39455;BME280;25155;41.890;23.446;2023-04-15T10:29:01;91346.38;;;12.26;37.86
39455;BME280;25155;41.890;23.446;2023-04-15T10:31:30;91344.81;;;12.34;37.55
39455;BME280;25155;41.890;23.446;2023-04-15T10:33:59;91350.13;;;12.52;38.53
39455;BME280;25155;41.890;23.446;2023-04-15T10:36:31;91357.25;;;12.68;37.56
39455;BME280;25155;41.890;23.446;2023-04-15T10:38:58;91350.19;;;12.78;37.82
39455;BME280;25155;41.890;23.446;2023-04-15T10:41:26;91339.50;;;12.74;36.44
39455;BME280;25155;41.890;23.446;2023-04-15T10:44:00;91334.56;;;12.81;37.14
39455;BME280;25155;41.890;23.446;2023-04-15T10:46:36;91341.53;;;12.86;37.47
39455;BME280;25155;41.890;23.446;2023-04-15T10:49:08;91334.09;;;12.88;35.58
39455;BME280;25155;41.890;23.446;2023-04-15T10:51:37;91341.38;;;12.82;35.47
39455;BME280;25155;41.890;23.446;2023-04-15T10:54:08;91338.16;;;12.85;36.32
39455;BME280;25155;41.890;23.446;2023-04-15T10:56:40;91344.78;;;13.00;37.20
39455;BME280;25155;41.890;23.446;2023-04-15T10:59:08;91352.06;;;12.95;34.33
39455;BME280;25155;41.890;23.446;2023-04-15T11:01:53;91347.09;;;12.93;35.68
39455;BME280;25155;41.890;23.446;2023-04-15T11:04:56;91341.53;;;13.21;37.02
39455;BME280;25155;41.890;23.446;2023-04-15T11:07:37;91336.38;;;13.51;36.44
39455;BME280;25155;41.890;23.446;2023-04-15T11:13:20;91346.63;;;13.44;33.28
39455;BME280;25155;41.890;23.446;2023-04-15T11:15:49;91350.91;;;13.57;32.85
39455;BME280;25155;41.890;23.446;2023-04-15T11:18:19;91350.31;;;13.42;31.94
39455;BME280;25155;41.890;23.446;2023-04-15T11:20:48;91344.13;;;13.30;31.83
39455;BME280;25155;41.890;23.446;2023-04-15T11:23:17;91345.22;;;13.37;33.42
39455;BME280;25155;41.890;23.446;2023-04-15T11:25:45;91339.59;;;13.56;35.01
39455;BME280;25155;41.890;23.446;2023-04-15T11:28:13;91339.59;;;13.56;33.02
39455;BME280;25155;41.890;23.446;2023-04-15T11:30:41;91334.03;;;13.58;33.05
39455;BME280;25155;41.890;23.446;2023-04-15T11:33:10;91344.28;;;13.51;31.93
39455;BME280;25155;41.890;23.446;2023-04-15T11:35:41;91343.84;;;13.14;31.25
39455;BME280;25155;41.890;23.446;2023-04-15T11:38:09;91344.78;;;13.00;31.19
39455;BME280;25155;41.890;23.446;2023-04-15T11:40:38;91335.34;;;12.91;32.18
39455;BME280;25155;41.890;23.446;2023-04-15T11:43:06;91337.03;;;12.95;32.67
39455;BME280;25155;41.890;23.446;2023-04-15T11:45:34;91344.78;;;13.00;33.02
39455;BME280;25155;41.890;23.446;2023-04-15T11:48:05;91341.38;;;13.09;32.90
39455;BME280;25155;41.890;23.446;2023-04-15T11:50:33;91339.34;;;13.23;33.33
39455;BME280;25155;41.890;23.446;2023-04-15T11:53:04;91337.03;;;13.30;32.81
39455;BME280;25155;41.890;23.446;2023-04-15T11:55:41;91329.13;;;13.21;32.98
39455;BME280;25155;41.890;23.446;2023-04-15T11:58:10;91335.47;;;13.29;33.00
39455;BME280;25155;41.890;23.446;2023-04-15T12:00:37;91337.50;;;13.32;33.76
39455;BME280;25155;41.890;23.446;2023-04-15T12:03:23;91334.41;;;13.21;32.68
39455;BME280;25155;41.890;23.446;2023-04-15T12:06:12;91340.31;;;13.01;32.63
39455;BME280;25155;41.890;23.446;2023-04-15T12:09:08;91336.41;;;12.98;32.84
39455;BME280;25155;41.890;23.446;2023-04-15T12:11:45;91339.06;;;12.90;33.17
39455;BME280;25155;41.890;23.446;2023-04-15T12:14:20;91328.53;;;12.81;33.11
39455;BME280;25155;41.890;23.446;2023-04-15T12:16:49;91343.41;;;12.94;33.29
39455;BME280;25155;41.890;23.446;2023-04-15T12:19:22;91344.78;;;13.00;33.80
39455;BME280;25155;41.890;23.446;2023-04-15T12:21:52;91343.25;;;12.99;32.26
39455;BME280;25155;41.890;23.446;2023-04-15T12:24:22;91350.22;;;13.04;32.58
39455;BME280;25155;41.890;23.446;2023-04-15T12:26:50;91352.06;;;13.21;32.93
39455;BME280;25155;41.890;23.446;2023-04-15T12:29:18;91352.22;;;13.16;32.89
39455;BME280;25155;41.890;23.446;2023-04-15T12:31:47;91348.19;;;13.10;34.08
39455;BME280;25155;41.890;23.446;2023-04-15T12:34:16;91347.84;;;13.20;34.03
39455;BME280;25155;41.890;23.446;2023-04-15T12:36:44;91354.69;;;13.21;34.04
39455;BME280;25155;41.890;23.446;2023-04-15T12:39:12;91347.84;;;13.20;32.94
39455;BME280;25155;41.890;23.446;2023-04-15T12:41:40;91346.00;;;13.29;34.25
39455;BME280;25155;41.890;23.446;2023-04-15T12:44:07;91339.34;;;13.23;33.48
39455;BME280;25155;41.890;23.446;2023-04-15T12:46:34;91334.88;;;13.15;33.05
39455;BME280;25155;41.890;23.446;2023-04-15T12:49:02;91337.19;;;12.90;34.89
39455;BME280;25155;41.890;23.446;2023-04-15T12:51:29;91339.97;;;12.85;32.56
39455;BME280;25155;41.890;23.446;2023-04-15T12:53:57;91336.28;;;12.86;33.03
39455;BME280;25155;41.890;23.446;2023-04-15T12:56:24;91330.53;;;13.01;35.33
39455;BME280;25155;41.890;23.446;2023-04-15T12:58:52;91337.19;;;13.16;33.12
39455;BME280;25155;41.890;23.446;2023-04-15T13:01:20;91343.22;;;13.17;30.97
39455;BME280;25155;41.890;23.446;2023-04-15T13:03:47;91334.41;;;13.21;32.11
39455;BME280;25155;41.890;23.446;2023-04-15T13:06:15;91314.88;;;13.31;32.68
39455;BME280;25155;41.890;23.446;2023-04-15T13:08:43;91321.34;;;13.51;32.45